SCEL/SCL METAR and TAF weather

Enter ICAO airport designator
Station Type Date Time Source
SCEL METAR 2024/02/26 18:00 UTC NOAA

SCEL 261800Z 17014KT 140V200 CAVOK 31/13 Q1016 NOSIG


Station Type Date Time Source
SCEL Decoded METAR 2024/02/26 18:00 UTC NOAA

Pudahuel, Chile (SCEL) 33-23S 070-47W 476M
Feb 26, 2024 - 01:00 PM EST / 2024.02.26 1800 UTC
Wind: from the S (170 degrees) at 16 MPH (14 KT) (direction variable):0
Visibility: greater than 7 mile(s):0
Temperature: 87 F (31 C)
Dew Point: 55 F (13 C)
Relative Humidity: 33%
Pressure (altimeter): 30.00 in. Hg (1016 hPa)
ob: SCEL 261800Z 17014KT 140V200 CAVOK 31/13 Q1016 NOSIG
cycle: 18

Station Type Date Time Source
SCEL TAF 2024/02/26 18:33 UTC NOAA